createdAt,value
2023-02-08T00:01:22.145Z,99.90
2023-02-08T00:03:49.937Z,99.90
2023-02-08T00:06:18.049Z,99.90
2023-02-08T00:08:45.757Z,99.90
2023-02-08T00:11:13.735Z,99.90
2023-02-08T00:13:42.437Z,99.90
2023-02-08T00:16:10.697Z,99.90
2023-02-08T00:18:39.285Z,99.90
2023-02-08T00:21:14.909Z,99.90
2023-02-08T00:23:41.998Z,99.90
2023-02-08T00:26:09.589Z,99.90
2023-02-08T00:28:37.079Z,99.90
2023-02-08T00:31:04.808Z,99.90
2023-02-08T00:33:32.222Z,99.90
2023-02-08T00:36:05.059Z,99.70
2023-02-08T00:38:32.405Z,99.80
2023-02-08T00:41:03.040Z,99.50
2023-02-08T00:43:30.196Z,99.30
2023-02-08T00:45:58.862Z,99.10
2023-02-08T00:48:27.537Z,98.90
2023-02-08T00:51:07.866Z,98.90
2023-02-08T00:53:39.888Z,98.80
2023-02-08T00:56:08.361Z,98.70
2023-02-08T00:58:36.219Z,98.70
2023-02-08T01:01:05.232Z,98.60
2023-02-08T01:03:37.764Z,98.50
2023-02-08T01:06:08.483Z,98.60
2023-02-08T01:08:36.311Z,98.70
2023-02-08T01:11:13.378Z,98.80
2023-02-08T01:13:40.976Z,98.40
2023-02-08T01:16:15.691Z,98.20
2023-02-08T01:18:44.882Z,98.30
2023-02-08T01:21:18.425Z,98.20
2023-02-08T01:23:46.571Z,98.20
2023-02-08T01:26:15.160Z,98.20
2023-02-08T01:28:42.638Z,97.70
2023-02-08T01:31:13.193Z,97.60
2023-02-08T01:33:40.467Z,97.40
2023-02-08T01:36:08.350Z,97.40
2023-02-08T01:38:36.931Z,97.30
2023-02-08T01:41:06.346Z,97.30
2023-02-08T01:43:55.384Z,97.10
2023-02-08T01:46:23.148Z,97.00
2023-02-08T01:48:52.061Z,96.80
2023-02-08T01:51:22.972Z,96.60
2023-02-08T01:53:52.264Z,96.30
2023-02-08T01:56:29.847Z,96.10
2023-02-08T01:59:02.888Z,95.90
2023-02-08T02:01:32.021Z,95.90
2023-02-08T02:04:04.133Z,96.00
2023-02-08T02:06:58.269Z,96.10
2023-02-08T02:09:29.087Z,95.90
2023-02-08T02:11:57.710Z,95.70
2023-02-08T02:14:28.231Z,95.60
2023-02-08T02:16:55.882Z,95.30
2023-02-08T02:19:51.079Z,95.20
2023-02-08T02:22:28.540Z,95.00
2023-02-08T02:25:02.888Z,95.00
2023-02-08T02:27:40.922Z,94.80
2023-02-08T02:30:46.124Z,94.80
2023-02-08T02:33:25.551Z,94.80
2023-02-08T02:36:02.195Z,95.10
2023-02-08T02:39:08.742Z,95.00
2023-02-08T02:42:04.632Z,95.10
2023-02-08T02:45:09.438Z,95.10
2023-02-08T02:47:55.981Z,95.20
2023-02-08T02:50:25.185Z,95.30
2023-02-08T02:53:01.098Z,95.40
2023-02-08T02:55:33.860Z,95.30
2023-02-08T02:58:02.834Z,95.50
2023-02-08T03:00:31.639Z,95.50
2023-02-08T03:02:58.809Z,95.30
2023-02-08T03:05:28.064Z,95.30
2023-02-08T03:08:10.264Z,95.30
2023-02-08T03:10:59.044Z,95.20
2023-02-08T03:13:55.525Z,95.20
2023-02-08T03:16:50.780Z,95.20
2023-02-08T03:19:29.081Z,95.40
2023-02-08T03:22:11.029Z,95.30
2023-02-08T03:25:00.630Z,95.40
2023-02-08T03:27:49.399Z,95.30
2023-02-08T03:30:45.445Z,95.50
2023-02-08T03:33:23.358Z,95.30
2023-02-08T03:36:06.552Z,95.20
2023-02-08T03:38:39.826Z,95.10
2023-02-08T03:41:10.394Z,95.20
2023-02-08T03:43:45.923Z,95.20
2023-02-08T03:46:27.810Z,95.30
2023-02-08T03:49:01.010Z,95.20
2023-02-08T03:51:30.221Z,95.30
2023-02-08T03:54:00.304Z,95.40
2023-02-08T03:57:18.524Z,95.40
2023-02-08T03:59:51.570Z,95.70
2023-02-08T04:02:21.876Z,95.80
2023-02-08T04:04:51.710Z,95.50
2023-02-08T04:07:19.721Z,95.90
2023-02-08T04:09:46.893Z,95.60
2023-02-08T04:12:14.363Z,95.70
2023-02-08T04:14:41.504Z,95.70
2023-02-08T04:17:08.607Z,95.80
2023-02-08T04:19:35.904Z,95.60
2023-02-08T04:22:02.947Z,95.70
2023-02-08T04:24:30.010Z,95.60
2023-02-08T04:26:57.106Z,95.70
2023-02-08T04:29:24.359Z,95.70
2023-02-08T04:31:51.437Z,95.70
2023-02-08T04:34:18.535Z,95.70
2023-02-08T04:36:45.613Z,95.80
2023-02-08T04:39:12.697Z,95.70
2023-02-08T04:41:39.697Z,95.70
2023-02-08T04:44:06.707Z,95.70
2023-02-08T04:46:33.879Z,95.70
2023-02-08T04:49:00.933Z,95.60
2023-02-08T04:51:28.014Z,95.70
2023-02-08T04:53:55.259Z,95.70
2023-02-08T04:56:23.202Z,95.70
2023-02-08T04:58:50.228Z,95.60
2023-02-08T05:01:17.614Z,95.70
2023-02-08T05:03:44.761Z,95.80
2023-02-08T05:06:11.930Z,95.80
2023-02-08T05:08:39.142Z,95.90
2023-02-08T05:11:06.327Z,96.00
2023-02-08T05:13:33.747Z,96.00
2023-02-08T05:16:00.849Z,96.00
2023-02-08T05:18:28.031Z,96.00
2023-02-08T05:21:00.083Z,96.10
2023-02-08T05:23:28.005Z,96.30
2023-02-08T05:25:55.090Z,96.20
2023-02-08T05:28:22.522Z,96.30
2023-02-08T05:30:49.908Z,96.30
2023-02-08T05:33:17.724Z,96.40
2023-02-08T05:35:45.615Z,96.30
2023-02-08T05:38:12.791Z,96.30
2023-02-08T05:40:40.135Z,96.40
2023-02-08T05:43:07.514Z,96.50
2023-02-08T05:45:34.588Z,96.50
2023-02-08T05:48:01.615Z,96.50
2023-02-08T05:50:28.708Z,96.70
2023-02-08T05:52:55.800Z,96.80
2023-02-08T05:55:22.946Z,96.80
2023-02-08T05:57:50.104Z,96.90
2023-02-08T06:00:17.544Z,97.10
2023-02-08T06:02:44.775Z,97.10
2023-02-08T06:05:11.908Z,97.30
2023-02-08T06:07:39.033Z,97.30
2023-02-08T06:10:06.424Z,97.30
2023-02-08T06:12:33.474Z,97.50
2023-02-08T06:15:00.516Z,97.60
2023-02-08T06:17:27.571Z,97.70
2023-02-08T06:19:54.608Z,97.80
2023-02-08T06:22:21.662Z,98.00
2023-02-08T06:24:49.153Z,98.10
2023-02-08T06:27:16.285Z,98.10
2023-02-08T06:29:43.553Z,98.10
2023-02-08T06:32:11.455Z,98.10
2023-02-08T06:34:38.672Z,98.20
2023-02-08T06:37:05.812Z,98.20
2023-02-08T06:39:33.002Z,98.20
2023-02-08T06:42:00.194Z,98.20
2023-02-08T06:44:27.315Z,98.00
2023-02-08T06:46:54.595Z,98.20
2023-02-08T06:49:21.828Z,97.80
2023-02-08T06:51:48.854Z,97.80
2023-02-08T06:54:15.979Z,97.70
2023-02-08T06:56:44.035Z,97.70
2023-02-08T06:59:11.512Z,97.50
2023-02-08T07:01:39.059Z,97.50
2023-02-08T07:04:06.357Z,97.30
2023-02-08T07:06:33.655Z,97.20
2023-02-08T07:09:02.632Z,97.10
2023-02-08T07:11:30.042Z,96.90
2023-02-08T07:13:57.116Z,96.70
2023-02-08T07:16:24.257Z,96.60
2023-02-08T07:18:51.390Z,96.50
2023-02-08T07:21:18.556Z,96.30
2023-02-08T07:23:46.398Z,96.00
2023-02-08T07:26:17.311Z,95.80
2023-02-08T07:28:44.481Z,95.70
2023-02-08T07:31:14.643Z,95.70
2023-02-08T07:33:42.318Z,95.50
2023-02-08T07:36:10.793Z,95.30
2023-02-08T07:38:39.090Z,95.20
2023-02-08T07:41:09.314Z,95.00
2023-02-08T07:43:38.326Z,94.70
2023-02-08T07:46:17.709Z,94.60
2023-02-08T07:48:45.175Z,94.40
2023-02-08T07:51:13.427Z,94.60
2023-02-08T07:53:40.580Z,94.30
2023-02-08T07:56:08.135Z,94.20
2023-02-08T07:58:35.497Z,94.10
2023-02-08T08:01:15.854Z,94.00
2023-02-08T08:03:48.611Z,94.00
2023-02-08T08:06:15.796Z,93.80
2023-02-08T08:08:47.376Z,93.70
2023-02-08T08:11:16.178Z,94.00
2023-02-08T08:13:43.718Z,94.00
2023-02-08T08:16:11.009Z,94.10
2023-02-08T08:18:38.556Z,94.00
2023-02-08T08:21:06.254Z,94.20
2023-02-08T08:23:33.627Z,94.00
2023-02-08T08:26:26.886Z,93.70
2023-02-08T08:28:53.962Z,93.60
2023-02-08T08:31:22.254Z,93.70
2023-02-08T08:33:50.391Z,93.20
2023-02-08T08:36:19.400Z,92.70
2023-02-08T08:38:46.519Z,92.80
2023-02-08T08:41:26.289Z,92.80
2023-02-08T08:43:57.701Z,92.50
2023-02-08T08:46:25.023Z,92.20
2023-02-08T08:48:55.819Z,92.20
2023-02-08T08:51:24.649Z,92.40
2023-02-08T08:53:57.235Z,92.30
2023-02-08T08:56:24.226Z,92.20
2023-02-08T08:58:51.286Z,92.10
2023-02-08T09:01:18.373Z,92.10
2023-02-08T09:03:45.698Z,92.10
2023-02-08T09:06:13.052Z,91.90
2023-02-08T09:08:40.152Z,91.70
2023-02-08T09:11:13.833Z,91.80
2023-02-08T09:13:46.483Z,91.50
2023-02-08T09:16:16.299Z,91.30
2023-02-08T09:18:45.221Z,91.20
2023-02-08T09:21:16.374Z,91.40
2023-02-08T09:23:44.102Z,91.30
2023-02-08T09:26:12.945Z,91.40
2023-02-08T09:28:40.275Z,91.30
2023-02-08T09:31:22.715Z,91.10
2023-02-08T09:34:12.806Z,90.90
2023-02-08T09:36:42.109Z,90.70
2023-02-08T09:39:22.699Z,90.60
2023-02-08T09:42:04.529Z,90.50
2023-02-08T09:45:09.027Z,90.20
2023-02-08T09:47:41.182Z,90.00
2023-02-08T09:50:47.265Z,90.00
2023-02-08T09:53:46.325Z,89.80
2023-02-08T09:56:18.920Z,89.70
2023-02-08T09:58:55.431Z,89.30
2023-02-08T10:01:49.180Z,89.50
2023-02-08T10:04:57.051Z,88.00
2023-02-08T10:07:31.120Z,89.80
2023-02-08T10:10:03.293Z,89.00
2023-02-08T10:13:00.171Z,89.70
2023-02-08T10:15:36.055Z,89.30
2023-02-08T10:18:45.309Z,89.40
2023-02-08T10:21:34.234Z,89.70
2023-02-08T10:24:29.123Z,89.80
2023-02-08T10:27:31.402Z,89.00
2023-02-08T10:30:13.579Z,89.20
2023-02-08T10:32:59.637Z,88.10
2023-02-08T10:35:26.824Z,87.90
2023-02-08T10:38:02.064Z,87.40
2023-02-08T10:40:36.832Z,87.90
2023-02-08T10:43:35.273Z,88.30
2023-02-08T10:46:10.566Z,87.20
2023-02-08T10:48:49.104Z,86.30
2023-02-08T10:51:23.901Z,86.00
2023-02-08T10:53:56.041Z,86.10
2023-02-08T11:09:44.772Z,86.30
2023-02-08T11:12:25.732Z,84.40
2023-02-08T11:14:53.880Z,83.30
2023-02-08T11:17:42.422Z,82.70
2023-02-08T11:20:40.618Z,82.50
2023-02-08T11:23:52.489Z,83.30
2023-02-08T11:26:25.225Z,81.80
2023-02-08T11:29:15.777Z,81.70
2023-02-08T11:32:02.713Z,80.50
2023-02-08T11:34:40.472Z,81.80
2023-02-08T11:37:32.799Z,81.20
2023-02-08T11:40:46.636Z,80.40
2023-02-08T11:43:31.886Z,78.10
2023-02-08T11:49:55.470Z,78.50
2023-02-08T11:52:40.450Z,78.40
2023-02-08T11:55:54.852Z,79.60
2023-02-08T11:58:31.085Z,79.90
2023-02-08T12:01:20.660Z,79.10
2023-02-08T12:03:55.159Z,79.20
2023-02-08T12:06:54.275Z,79.00
2023-02-08T12:09:59.159Z,79.20
2023-02-08T12:13:05.932Z,80.50
2023-02-08T12:26:51.908Z,78.70
2023-02-08T12:39:55.660Z,75.90
2023-02-08T12:42:51.281Z,75.30
2023-02-08T12:57:00.370Z,76.40
2023-02-08T13:03:32.612Z,75.50
2023-02-08T13:06:28.191Z,75.00
2023-02-08T13:09:20.962Z,75.60
2023-02-08T13:12:22.573Z,75.00
2023-02-08T13:15:02.947Z,75.80
2023-02-08T13:18:15.830Z,76.30
2023-02-08T13:21:18.225Z,76.60
2023-02-08T13:23:58.912Z,73.90
2023-02-08T13:26:27.994Z,74.20
2023-02-08T13:32:37.339Z,75.50
2023-02-08T13:35:15.949Z,74.40
2023-02-08T13:38:02.121Z,73.50
2023-02-08T13:40:37.203Z,74.60
2023-02-08T13:44:00.935Z,75.70
2023-02-08T13:47:04.055Z,75.50
2023-02-08T13:50:07.861Z,76.30
2023-02-08T13:52:48.156Z,76.70
2023-02-08T13:55:34.683Z,76.50
2023-02-08T13:58:16.409Z,74.20
2023-02-08T14:01:01.687Z,73.90
2023-02-08T14:03:35.241Z,73.30
2023-02-08T14:06:25.898Z,74.60
2023-02-08T14:09:14.030Z,73.50
2023-02-08T14:11:52.164Z,74.50
2023-02-08T14:14:38.362Z,74.10
2023-02-08T14:17:27.838Z,74.50
2023-02-08T14:20:05.171Z,74.70
2023-02-08T14:22:49.452Z,75.60
2023-02-08T14:25:46.313Z,76.30
2023-02-08T14:28:31.750Z,74.50
2023-02-08T14:31:04.593Z,74.40
2023-02-08T14:33:38.081Z,73.90
2023-02-08T14:36:41.417Z,74.20
2023-02-08T14:39:30.933Z,73.80
2023-02-08T14:42:09.629Z,73.10
2023-02-08T14:44:39.628Z,73.90
2023-02-08T14:47:25.849Z,74.30
2023-02-08T14:53:11.902Z,75.20
2023-02-08T14:55:59.373Z,75.60
2023-02-08T14:58:30.649Z,76.50
2023-02-08T15:01:03.161Z,77.10
2023-02-08T15:03:33.484Z,76.90
2023-02-08T15:06:08.279Z,77.50
2023-02-08T15:08:35.878Z,77.30
2023-02-08T15:11:04.026Z,77.30
2023-02-08T15:13:32.174Z,77.60
2023-02-08T15:15:59.766Z,77.60
2023-02-08T15:18:32.381Z,77.50
2023-02-08T15:21:04.203Z,77.30
2023-02-08T15:23:35.259Z,77.00
2023-02-08T15:26:06.429Z,77.50
2023-02-08T15:28:37.168Z,77.40
2023-02-08T15:31:10.214Z,77.80
2023-02-08T15:33:43.137Z,78.20
2023-02-08T15:36:19.345Z,78.20
2023-02-08T15:38:47.361Z,78.60
2023-02-08T15:41:35.926Z,78.80
2023-02-08T15:44:33.153Z,78.80
2023-02-08T15:47:06.103Z,79.20
2023-02-08T15:49:41.441Z,79.40
2023-02-08T15:52:14.963Z,79.60
2023-02-08T15:54:44.254Z,79.90
2023-02-08T15:57:41.062Z,80.20
2023-02-08T16:03:23.844Z,81.20
2023-02-08T16:06:06.384Z,81.10
2023-02-08T16:08:36.907Z,81.40
2023-02-08T16:49:19.987Z,85.10
2023-02-08T16:51:49.725Z,85.30
2023-02-08T17:47:17.268Z,87.00
2023-02-08T18:01:57.673Z,87.60
2023-02-08T18:04:25.077Z,87.80
2023-02-08T18:06:58.640Z,88.10
2023-02-08T18:09:27.923Z,88.20
2023-02-08T18:11:55.959Z,88.40
2023-02-08T18:14:23.758Z,88.70
2023-02-08T18:16:57.998Z,88.90
2023-02-08T18:19:27.351Z,89.00
2023-02-08T18:22:00.428Z,89.60
2023-02-08T18:24:29.036Z,89.10
2023-02-08T18:26:59.580Z,89.30
2023-02-08T18:29:29.664Z,89.80
2023-02-08T18:32:17.538Z,89.90
2023-02-08T18:35:07.065Z,90.00
2023-02-08T18:38:08.417Z,90.00
2023-02-08T18:40:40.587Z,90.10
2023-02-08T18:43:11.142Z,90.10
2023-02-08T18:45:43.021Z,90.00
2023-02-08T18:48:13.695Z,90.10
2023-02-08T18:50:42.635Z,90.20
2023-02-08T18:53:10.881Z,90.10
2023-02-08T18:55:39.412Z,90.10
2023-02-08T18:58:07.497Z,90.10
2023-02-08T19:00:35.865Z,90.10
2023-02-08T19:03:05.252Z,90.20
2023-02-08T19:05:39.143Z,90.20
2023-02-08T19:08:07.482Z,90.20
2023-02-08T19:10:41.119Z,90.30
2023-02-08T19:13:09.670Z,90.30
2023-02-08T19:15:39.428Z,90.30
2023-02-08T19:18:07.907Z,90.50
2023-02-08T19:20:38.101Z,90.60
2023-02-08T19:23:07.071Z,90.70
2023-02-08T19:25:39.347Z,90.80
2023-02-08T19:28:07.989Z,90.90
2023-02-08T19:30:37.562Z,90.90
2023-02-08T19:33:06.276Z,91.00
2023-02-08T19:35:38.560Z,91.10
2023-02-08T19:38:07.769Z,91.20
2023-02-08T19:40:37.668Z,91.20
2023-02-08T19:43:07.150Z,91.30
2023-02-08T19:45:36.276Z,91.40
2023-02-08T19:48:05.231Z,91.30
2023-02-08T19:50:34.684Z,91.50
2023-02-08T19:53:03.159Z,91.60
2023-02-08T19:55:31.432Z,91.60
2023-02-08T19:58:00.205Z,91.60
2023-02-08T20:00:29.518Z,91.80
2023-02-08T20:02:57.825Z,91.70
2023-02-08T20:05:25.775Z,92.10
2023-02-08T20:07:54.345Z,92.00
2023-02-08T20:10:22.116Z,92.20
2023-02-08T20:12:51.310Z,92.10
2023-02-08T20:15:19.424Z,92.20
2023-02-08T20:17:49.196Z,92.20
2023-02-08T20:20:16.992Z,92.30
2023-02-08T20:22:44.699Z,92.50
2023-02-08T20:25:12.985Z,92.70
2023-02-08T20:27:41.087Z,92.80
2023-02-08T20:30:09.781Z,93.00
2023-02-08T20:32:37.202Z,93.00
2023-02-08T20:35:05.689Z,93.20
2023-02-08T20:37:34.134Z,92.90
2023-02-08T20:40:02.074Z,93.40
2023-02-08T20:42:29.982Z,93.40
2023-02-08T20:44:58.758Z,93.50
2023-02-08T20:47:27.452Z,93.60
2023-02-08T20:49:56.709Z,93.50
2023-02-08T20:52:24.916Z,93.60
2023-02-08T20:54:52.800Z,93.60
2023-02-08T20:57:20.994Z,93.70
2023-02-08T20:59:53.501Z,93.70
2023-02-08T21:02:26.732Z,93.90
2023-02-08T21:04:54.426Z,93.70
2023-02-08T21:07:21.857Z,93.60
2023-02-08T21:09:49.272Z,93.50
2023-02-08T21:12:16.704Z,93.70
2023-02-08T21:14:44.831Z,93.70
2023-02-08T21:17:12.433Z,93.70
2023-02-08T21:19:39.773Z,93.60
2023-02-08T21:22:08.509Z,93.70
2023-02-08T21:24:36.240Z,93.80
2023-02-08T21:27:03.569Z,93.90
2023-02-08T21:29:32.677Z,93.90
2023-02-08T21:32:00.090Z,94.00
2023-02-08T21:34:27.550Z,94.20
2023-02-08T21:36:54.709Z,94.30
2023-02-08T21:39:23.375Z,94.50
2023-02-08T21:41:53.067Z,94.50
2023-02-08T21:44:20.737Z,94.60
2023-02-08T21:46:48.464Z,95.00
2023-02-08T21:49:34.178Z,94.70
2023-02-08T21:52:20.362Z,94.90
2023-02-08T21:54:53.275Z,94.90
2023-02-08T21:57:28.882Z,95.00
2023-02-08T22:00:01.511Z,95.00
2023-02-08T22:02:30.459Z,95.20
2023-02-08T22:05:22.273Z,95.30
2023-02-08T22:07:53.108Z,95.30
2023-02-08T22:10:23.226Z,95.40
2023-02-08T22:12:52.547Z,95.50
2023-02-08T22:15:21.184Z,95.60
2023-02-08T22:17:51.770Z,95.60
2023-02-08T22:20:18.986Z,95.60
2023-02-08T22:22:46.194Z,95.70
2023-02-08T22:25:13.674Z,95.60
2023-02-08T22:27:41.182Z,95.80
2023-02-08T22:30:10.129Z,95.80
2023-02-08T22:32:43.844Z,96.00
2023-02-08T22:35:12.450Z,96.10
2023-02-08T22:37:39.584Z,96.00
2023-02-08T22:40:07.485Z,96.00
2023-02-08T22:42:34.637Z,95.90
2023-02-08T22:45:01.669Z,96.00
2023-02-08T22:47:28.738Z,96.00
2023-02-08T22:49:58.729Z,96.00
2023-02-08T22:52:26.480Z,96.40
2023-02-08T22:54:54.676Z,96.60
2023-02-08T22:57:21.802Z,96.70
2023-02-08T22:59:48.953Z,97.00
2023-02-08T23:02:18.653Z,97.20
2023-02-08T23:04:45.884Z,97.30
2023-02-08T23:07:12.904Z,97.50
2023-02-08T23:09:40.066Z,97.50
2023-02-08T23:12:07.323Z,97.70
2023-02-08T23:14:36.188Z,97.70
2023-02-08T23:17:03.340Z,97.80
2023-02-08T23:19:30.383Z,97.70
2023-02-08T23:22:00.736Z,97.60
2023-02-08T23:24:28.154Z,97.50
2023-02-08T23:26:55.219Z,97.70
2023-02-08T23:29:22.280Z,97.70
2023-02-08T23:31:49.552Z,97.80
2023-02-08T23:34:16.778Z,98.00
2023-02-08T23:36:44.166Z,98.00
2023-02-08T23:39:11.284Z,97.70
2023-02-08T23:41:38.501Z,97.90
2023-02-08T23:44:06.513Z,98.00
2023-02-08T23:46:33.742Z,98.10
2023-02-08T23:49:00.864Z,98.20
2023-02-08T23:51:28.078Z,98.30
2023-02-08T23:53:55.358Z,98.20
2023-02-08T23:56:27.909Z,98.20
2023-02-08T23:58:58.385Z,98.20
